sensor_id;sensor_type;location;lat;lon;timestamp;P1;durP1;ratioP1;P2;durP2;ratioP2
7583;SDS011;3833;41.764;26.204;2022-09-09T00:00:18;2.93;;;2.33;;
7583;SDS011;3833;41.764;26.204;2022-09-09T00:02:49;3.33;;;2.40;;
7583;SDS011;3833;41.764;26.204;2022-09-09T00:05:27;2.80;;;2.37;;
7583;SDS011;3833;41.764;26.204;2022-09-09T00:07:59;4.37;;;2.70;;
7583;SDS011;3833;41.764;26.204;2022-09-09T00:10:30;3.03;;;2.60;;
7583;SDS011;3833;41.764;26.204;2022-09-09T00:13:01;2.80;;;2.50;;
7583;SDS011;3833;41.764;26.204;2022-09-09T00:15:45;2.57;;;2.37;;
7583;SDS011;3833;41.764;26.204;2022-09-09T00:18:24;2.63;;;2.33;;
7583;SDS011;3833;41.764;26.204;2022-09-09T00:20:57;4.63;;;2.50;;
7583;SDS011;3833;41.764;26.204;2022-09-09T00:23:30;4.33;;;2.63;;
7583;SDS011;3833;41.764;26.204;2022-09-09T00:26:01;4.47;;;2.60;;
7583;SDS011;3833;41.764;26.204;2022-09-09T00:28:32;2.60;;;2.23;;
7583;SDS011;3833;41.764;26.204;2022-09-09T00:31:11;3.70;;;2.57;;
7583;SDS011;3833;41.764;26.204;2022-09-09T00:33:39;3.73;;;2.47;;
7583;SDS011;3833;41.764;26.204;2022-09-09T00:36:09;2.50;;;2.30;;
7583;SDS011;3833;41.764;26.204;2022-09-09T00:38:42;3.53;;;2.83;;
7583;SDS011;3833;41.764;26.204;2022-09-09T00:41:13;5.40;;;2.77;;
7583;SDS011;3833;41.764;26.204;2022-09-09T00:43:46;3.67;;;2.80;;
7583;SDS011;3833;41.764;26.204;2022-09-09T00:46:30;2.60;;;2.40;;
7583;SDS011;3833;41.764;26.204;2022-09-09T00:49:12;3.90;;;2.60;;
7583;SDS011;3833;41.764;26.204;2022-09-09T00:51:46;3.30;;;2.40;;
7583;SDS011;3833;41.764;26.204;2022-09-09T00:54:28;4.43;;;2.70;;
7583;SDS011;3833;41.764;26.204;2022-09-09T00:57:06;2.97;;;2.60;;
7583;SDS011;3833;41.764;26.204;2022-09-09T00:59:42;2.43;;;2.23;;
7583;SDS011;3833;41.764;26.204;2022-09-09T01:02:16;2.63;;;2.23;;
7583;SDS011;3833;41.764;26.204;2022-09-09T01:04:51;2.60;;;2.13;;
7583;SDS011;3833;41.764;26.204;2022-09-09T01:07:19;3.67;;;2.37;;
7583;SDS011;3833;41.764;26.204;2022-09-09T01:09:51;3.50;;;2.13;;
7583;SDS011;3833;41.764;26.204;2022-09-09T01:12:24;3.10;;;2.20;;
7583;SDS011;3833;41.764;26.204;2022-09-09T01:15:01;2.83;;;1.93;;
7583;SDS011;3833;41.764;26.204;2022-09-09T01:17:38;3.67;;;2.50;;
7583;SDS011;3833;41.764;26.204;2022-09-09T01:20:13;2.90;;;2.60;;
7583;SDS011;3833;41.764;26.204;2022-09-09T01:22:44;2.80;;;2.53;;
7583;SDS011;3833;41.764;26.204;2022-09-09T01:28:33;3.40;;;2.90;;
7583;SDS011;3833;41.764;26.204;2022-09-09T01:31:02;3.43;;;3.07;;
7583;SDS011;3833;41.764;26.204;2022-09-09T01:33:30;5.23;;;3.40;;
7583;SDS011;3833;41.764;26.204;2022-09-09T01:35:58;4.90;;;3.20;;
7583;SDS011;3833;41.764;26.204;2022-09-09T01:38:28;5.20;;;3.20;;
7583;SDS011;3833;41.764;26.204;2022-09-09T01:40:59;3.30;;;3.00;;
7583;SDS011;3833;41.764;26.204;2022-09-09T01:43:26;3.13;;;2.83;;
7583;SDS011;3833;41.764;26.204;2022-09-09T01:45:55;4.97;;;2.50;;
7583;SDS011;3833;41.764;26.204;2022-09-09T01:48:25;5.07;;;2.40;;
7583;SDS011;3833;41.764;26.204;2022-09-09T01:50:52;5.23;;;2.30;;
7583;SDS011;3833;41.764;26.204;2022-09-09T01:53:19;2.70;;;2.50;;
7583;SDS011;3833;41.764;26.204;2022-09-09T01:55:48;3.10;;;2.30;;
7583;SDS011;3833;41.764;26.204;2022-09-09T01:58:31;3.77;;;2.40;;
7583;SDS011;3833;41.764;26.204;2022-09-09T02:01:08;5.40;;;2.90;;
7583;SDS011;3833;41.764;26.204;2022-09-09T02:03:51;2.63;;;2.43;;
7583;SDS011;3833;41.764;26.204;2022-09-09T02:06:24;6.97;;;2.93;;
7583;SDS011;3833;41.764;26.204;2022-09-09T02:08:55;5.47;;;2.70;;
7583;SDS011;3833;41.764;26.204;2022-09-09T02:11:25;3.63;;;2.93;;
7583;SDS011;3833;41.764;26.204;2022-09-09T02:13:56;4.50;;;2.93;;
7583;SDS011;3833;41.764;26.204;2022-09-09T02:16:28;4.53;;;3.03;;
7583;SDS011;3833;41.764;26.204;2022-09-09T02:19:01;6.20;;;3.07;;
7583;SDS011;3833;41.764;26.204;2022-09-09T02:21:30;3.93;;;2.70;;
7583;SDS011;3833;41.764;26.204;2022-09-09T02:24:00;4.70;;;2.80;;
7583;SDS011;3833;41.764;26.204;2022-09-09T02:26:30;4.93;;;2.73;;
7583;SDS011;3833;41.764;26.204;2022-09-09T02:29:02;4.90;;;2.80;;
7583;SDS011;3833;41.764;26.204;2022-09-09T02:31:33;3.43;;;2.53;;
7583;SDS011;3833;41.764;26.204;2022-09-09T02:34:01;2.83;;;2.33;;
7583;SDS011;3833;41.764;26.204;2022-09-09T02:36:31;2.77;;;2.20;;
7583;SDS011;3833;41.764;26.204;2022-09-09T02:39:00;3.27;;;2.40;;
7583;SDS011;3833;41.764;26.204;2022-09-09T02:41:30;2.87;;;2.20;;
7583;SDS011;3833;41.764;26.204;2022-09-09T02:43:59;6.47;;;2.63;;
7583;SDS011;3833;41.764;26.204;2022-09-09T02:46:46;3.30;;;2.23;;
7583;SDS011;3833;41.764;26.204;2022-09-09T02:49:25;2.57;;;2.37;;
7583;SDS011;3833;41.764;26.204;2022-09-09T02:52:02;3.87;;;2.63;;
7583;SDS011;3833;41.764;26.204;2022-09-09T02:54:32;3.53;;;2.63;;
7583;SDS011;3833;41.764;26.204;2022-09-09T02:57:01;5.77;;;2.73;;
7583;SDS011;3833;41.764;26.204;2022-09-09T02:59:32;5.27;;;2.53;;
7583;SDS011;3833;41.764;26.204;2022-09-09T03:02:01;3.37;;;2.50;;
7583;SDS011;3833;41.764;26.204;2022-09-09T03:04:28;3.07;;;2.27;;
7583;SDS011;3833;41.764;26.204;2022-09-09T03:06:55;4.30;;;2.40;;
7583;SDS011;3833;41.764;26.204;2022-09-09T03:09:22;4.03;;;2.50;;
7583;SDS011;3833;41.764;26.204;2022-09-09T03:11:48;3.27;;;2.43;;
7583;SDS011;3833;41.764;26.204;2022-09-09T03:14:15;6.80;;;2.53;;
7583;SDS011;3833;41.764;26.204;2022-09-09T03:16:46;5.80;;;3.73;;
7583;SDS011;3833;41.764;26.204;2022-09-09T03:19:14;9.53;;;3.53;;
7583;SDS011;3833;41.764;26.204;2022-09-09T03:21:41;6.83;;;3.90;;
7583;SDS011;3833;41.764;26.204;2022-09-09T03:24:08;6.77;;;3.73;;
7583;SDS011;3833;41.764;26.204;2022-09-09T03:26:35;7.07;;;3.97;;
7583;SDS011;3833;41.764;26.204;2022-09-09T03:29:02;4.20;;;3.73;;
7583;SDS011;3833;41.764;26.204;2022-09-09T03:31:32;4.83;;;3.20;;
7583;SDS011;3833;41.764;26.204;2022-09-09T03:34:00;4.30;;;3.50;;
7583;SDS011;3833;41.764;26.204;2022-09-09T03:36:29;4.97;;;4.13;;
7583;SDS011;3833;41.764;26.204;2022-09-09T03:38:56;9.20;;;4.10;;
7583;SDS011;3833;41.764;26.204;2022-09-09T03:41:24;5.47;;;4.27;;
7583;SDS011;3833;41.764;26.204;2022-09-09T03:43:52;6.57;;;3.83;;
7583;SDS011;3833;41.764;26.204;2022-09-09T03:46:20;7.20;;;3.60;;
7583;SDS011;3833;41.764;26.204;2022-09-09T03:48:47;4.07;;;3.70;;
7583;SDS011;3833;41.764;26.204;2022-09-09T03:51:15;6.73;;;3.93;;
7583;SDS011;3833;41.764;26.204;2022-09-09T03:53:43;5.57;;;3.70;;
7583;SDS011;3833;41.764;26.204;2022-09-09T03:56:10;9.20;;;3.67;;
7583;SDS011;3833;41.764;26.204;2022-09-09T03:58:37;3.80;;;3.40;;
7583;SDS011;3833;41.764;26.204;2022-09-09T04:01:05;6.20;;;3.47;;
7583;SDS011;3833;41.764;26.204;2022-09-09T04:03:34;6.63;;;3.40;;
7583;SDS011;3833;41.764;26.204;2022-09-09T04:06:01;6.73;;;3.30;;
7583;SDS011;3833;41.764;26.204;2022-09-09T04:08:29;4.70;;;3.47;;
7583;SDS011;3833;41.764;26.204;2022-09-09T04:10:59;5.03;;;3.27;;
7583;SDS011;3833;41.764;26.204;2022-09-09T04:13:30;5.37;;;3.67;;
7583;SDS011;3833;41.764;26.204;2022-09-09T04:15:57;4.13;;;3.33;;
7583;SDS011;3833;41.764;26.204;2022-09-09T04:18:26;3.67;;;3.27;;
7583;SDS011;3833;41.764;26.204;2022-09-09T04:20:53;4.90;;;3.53;;
7583;SDS011;3833;41.764;26.204;2022-09-09T04:23:22;4.43;;;3.00;;
7583;SDS011;3833;41.764;26.204;2022-09-09T04:25:51;4.83;;;3.20;;
7583;SDS011;3833;41.764;26.204;2022-09-09T04:28:21;3.07;;;2.77;;
7583;SDS011;3833;41.764;26.204;2022-09-09T04:30:49;4.20;;;3.07;;
7583;SDS011;3833;41.764;26.204;2022-09-09T04:33:17;3.47;;;3.17;;
7583;SDS011;3833;41.764;26.204;2022-09-09T04:35:44;4.27;;;3.30;;
7583;SDS011;3833;41.764;26.204;2022-09-09T04:38:13;3.63;;;2.87;;
7583;SDS011;3833;41.764;26.204;2022-09-09T04:40:41;4.30;;;3.10;;
7583;SDS011;3833;41.764;26.204;2022-09-09T04:43:09;7.47;;;3.30;;
7583;SDS011;3833;41.764;26.204;2022-09-09T04:45:37;5.53;;;3.50;;
7583;SDS011;3833;41.764;26.204;2022-09-09T04:48:05;4.23;;;3.00;;
7583;SDS011;3833;41.764;26.204;2022-09-09T04:50:32;5.27;;;3.37;;
7583;SDS011;3833;41.764;26.204;2022-09-09T04:53:00;4.60;;;3.60;;
7583;SDS011;3833;41.764;26.204;2022-09-09T04:55:27;3.90;;;3.47;;
7583;SDS011;3833;41.764;26.204;2022-09-09T04:57:55;5.07;;;3.10;;
7583;SDS011;3833;41.764;26.204;2022-09-09T05:00:22;4.00;;;3.67;;
7583;SDS011;3833;41.764;26.204;2022-09-09T05:02:50;3.90;;;3.20;;
7583;SDS011;3833;41.764;26.204;2022-09-09T05:05:17;5.70;;;3.60;;
7583;SDS011;3833;41.764;26.204;2022-09-09T05:07:44;4.37;;;3.10;;
7583;SDS011;3833;41.764;26.204;2022-09-09T05:10:12;3.77;;;3.47;;
7583;SDS011;3833;41.764;26.204;2022-09-09T05:12:40;5.97;;;4.10;;
7583;SDS011;3833;41.764;26.204;2022-09-09T05:15:07;5.93;;;4.10;;
7583;SDS011;3833;41.764;26.204;2022-09-09T05:17:35;5.17;;;4.00;;
7583;SDS011;3833;41.764;26.204;2022-09-09T05:20:03;4.90;;;4.10;;
7583;SDS011;3833;41.764;26.204;2022-09-09T05:22:31;4.50;;;4.10;;
7583;SDS011;3833;41.764;26.204;2022-09-09T05:24:58;4.97;;;4.10;;
7583;SDS011;3833;41.764;26.204;2022-09-09T05:27:25;7.00;;;4.47;;
7583;SDS011;3833;41.764;26.204;2022-09-09T05:29:52;4.73;;;4.30;;
7583;SDS011;3833;41.764;26.204;2022-09-09T05:32:20;7.03;;;3.73;;
7583;SDS011;3833;41.764;26.204;2022-09-09T05:34:49;4.77;;;4.00;;
7583;SDS011;3833;41.764;26.204;2022-09-09T05:37:18;4.87;;;3.73;;
7583;SDS011;3833;41.764;26.204;2022-09-09T05:39:45;4.33;;;3.93;;
7583;SDS011;3833;41.764;26.204;2022-09-09T05:42:12;9.23;;;4.30;;
7583;SDS011;3833;41.764;26.204;2022-09-09T05:44:42;3.50;;;3.20;;
7583;SDS011;3833;41.764;26.204;2022-09-09T05:47:09;6.50;;;3.93;;
7583;SDS011;3833;41.764;26.204;2022-09-09T05:49:36;5.83;;;4.10;;
7583;SDS011;3833;41.764;26.204;2022-09-09T05:52:03;6.30;;;3.60;;
7583;SDS011;3833;41.764;26.204;2022-09-09T05:54:32;6.00;;;4.13;;
7583;SDS011;3833;41.764;26.204;2022-09-09T05:56:59;4.73;;;3.20;;
7583;SDS011;3833;41.764;26.204;2022-09-09T05:59:26;5.43;;;3.07;;
7583;SDS011;3833;41.764;26.204;2022-09-09T06:01:53;8.07;;;4.70;;
7583;SDS011;3833;41.764;26.204;2022-09-09T06:04:20;5.33;;;3.50;;
7583;SDS011;3833;41.764;26.204;2022-09-09T06:06:49;4.07;;;2.90;;
7583;SDS011;3833;41.764;26.204;2022-09-09T06:09:19;6.17;;;3.97;;
7583;SDS011;3833;41.764;26.204;2022-09-09T06:11:47;5.70;;;3.83;;
7583;SDS011;3833;41.764;26.204;2022-09-09T06:14:14;6.50;;;4.43;;
7583;SDS011;3833;41.764;26.204;2022-09-09T06:16:43;5.63;;;4.57;;
7583;SDS011;3833;41.764;26.204;2022-09-09T06:19:10;4.00;;;3.60;;
7583;SDS011;3833;41.764;26.204;2022-09-09T06:21:37;5.50;;;3.60;;
7583;SDS011;3833;41.764;26.204;2022-09-09T06:24:05;6.00;;;3.50;;
7583;SDS011;3833;41.764;26.204;2022-09-09T06:26:34;5.10;;;2.93;;
7583;SDS011;3833;41.764;26.204;2022-09-09T06:29:03;3.70;;;2.90;;
7583;SDS011;3833;41.764;26.204;2022-09-09T06:31:31;4.03;;;2.90;;
7583;SDS011;3833;41.764;26.204;2022-09-09T06:34:00;3.83;;;3.17;;
7583;SDS011;3833;41.764;26.204;2022-09-09T06:36:28;3.70;;;3.10;;
7583;SDS011;3833;41.764;26.204;2022-09-09T06:38:57;5.57;;;3.27;;
7583;SDS011;3833;41.764;26.204;2022-09-09T06:41:24;5.23;;;3.40;;
7583;SDS011;3833;41.764;26.204;2022-09-09T06:43:52;6.73;;;3.33;;
7583;SDS011;3833;41.764;26.204;2022-09-09T06:46:22;5.17;;;3.67;;
7583;SDS011;3833;41.764;26.204;2022-09-09T06:48:52;7.00;;;3.43;;
7583;SDS011;3833;41.764;26.204;2022-09-09T06:51:20;3.97;;;3.13;;
7583;SDS011;3833;41.764;26.204;2022-09-09T06:53:50;8.53;;;3.50;;
7583;SDS011;3833;41.764;26.204;2022-09-09T06:56:18;5.50;;;2.60;;
7583;SDS011;3833;41.764;26.204;2022-09-09T06:58:48;4.63;;;2.93;;
7583;SDS011;3833;41.764;26.204;2022-09-09T07:01:16;3.37;;;2.30;;
7583;SDS011;3833;41.764;26.204;2022-09-09T07:03:46;5.73;;;2.47;;
7583;SDS011;3833;41.764;26.204;2022-09-09T07:06:15;6.50;;;2.33;;
7583;SDS011;3833;41.764;26.204;2022-09-09T07:08:48;3.70;;;2.53;;
7583;SDS011;3833;41.764;26.204;2022-09-09T07:11:15;2.93;;;2.63;;
7583;SDS011;3833;41.764;26.204;2022-09-09T07:13:42;4.90;;;2.70;;
7583;SDS011;3833;41.764;26.204;2022-09-09T07:16:09;4.17;;;2.37;;
7583;SDS011;3833;41.764;26.204;2022-09-09T07:18:37;2.60;;;2.37;;
7583;SDS011;3833;41.764;26.204;2022-09-09T07:21:08;7.67;;;2.73;;
7583;SDS011;3833;41.764;26.204;2022-09-09T07:23:37;3.53;;;2.33;;
7583;SDS011;3833;41.764;26.204;2022-09-09T07:26:07;3.00;;;2.60;;
7583;SDS011;3833;41.764;26.204;2022-09-09T07:28:34;2.27;;;1.87;;
7583;SDS011;3833;41.764;26.204;2022-09-09T07:31:02;2.30;;;1.97;;
7583;SDS011;3833;41.764;26.204;2022-09-09T07:33:29;3.37;;;1.97;;
7583;SDS011;3833;41.764;26.204;2022-09-09T07:36:02;3.93;;;2.27;;
7583;SDS011;3833;41.764;26.204;2022-09-09T07:38:32;3.00;;;2.10;;
7583;SDS011;3833;41.764;26.204;2022-09-09T07:41:03;2.40;;;1.67;;
7583;SDS011;3833;41.764;26.204;2022-09-09T07:43:32;5.23;;;2.30;;
7583;SDS011;3833;41.764;26.204;2022-09-09T07:45:59;6.67;;;2.50;;
7583;SDS011;3833;41.764;26.204;2022-09-09T07:48:28;4.80;;;2.27;;
7583;SDS011;3833;41.764;26.204;2022-09-09T07:51:02;2.20;;;1.90;;
7583;SDS011;3833;41.764;26.204;2022-09-09T07:53:32;4.43;;;1.80;;
7583;SDS011;3833;41.764;26.204;2022-09-09T07:56:02;4.30;;;1.80;;
7583;SDS011;3833;41.764;26.204;2022-09-09T07:58:29;1.70;;;1.60;;
7583;SDS011;3833;41.764;26.204;2022-09-09T08:00:56;4.03;;;1.60;;
7583;SDS011;3833;41.764;26.204;2022-09-09T08:03:23;4.30;;;1.60;;
7583;SDS011;3833;41.764;26.204;2022-09-09T08:05:50;3.20;;;1.70;;
7583;SDS011;3833;41.764;26.204;2022-09-09T08:08:17;3.23;;;1.73;;
7583;SDS011;3833;41.764;26.204;2022-09-09T08:10:48;2.47;;;1.70;;
7583;SDS011;3833;41.764;26.204;2022-09-09T08:13:14;2.47;;;1.63;;
7583;SDS011;3833;41.764;26.204;2022-09-09T08:15:42;3.07;;;1.80;;
7583;SDS011;3833;41.764;26.204;2022-09-09T08:18:09;6.07;;;1.87;;
7583;SDS011;3833;41.764;26.204;2022-09-09T08:20:36;3.27;;;1.73;;
7583;SDS011;3833;41.764;26.204;2022-09-09T08:23:03;2.67;;;1.97;;
7583;SDS011;3833;41.764;26.204;2022-09-09T08:25:31;2.20;;;2.00;;
7583;SDS011;3833;41.764;26.204;2022-09-09T08:27:59;2.00;;;1.77;;
7583;SDS011;3833;41.764;26.204;2022-09-09T08:30:27;4.37;;;2.20;;
7583;SDS011;3833;41.764;26.204;2022-09-09T08:32:53;5.47;;;2.47;;
7583;SDS011;3833;41.764;26.204;2022-09-09T08:35:20;2.00;;;1.77;;
7583;SDS011;3833;41.764;26.204;2022-09-09T08:37:47;3.87;;;2.10;;
7583;SDS011;3833;41.764;26.204;2022-09-09T08:40:17;3.23;;;2.00;;
7583;SDS011;3833;41.764;26.204;2022-09-09T08:42:49;2.50;;;2.00;;
7583;SDS011;3833;41.764;26.204;2022-09-09T08:45:22;3.97;;;2.17;;
7583;SDS011;3833;41.764;26.204;2022-09-09T08:48:02;4.33;;;2.17;;
7583;SDS011;3833;41.764;26.204;2022-09-09T08:50:37;2.73;;;2.20;;
7583;SDS011;3833;41.764;26.204;2022-09-09T08:53:09;5.60;;;2.60;;
7583;SDS011;3833;41.764;26.204;2022-09-09T08:55:43;3.30;;;2.33;;
7583;SDS011;3833;41.764;26.204;2022-09-09T08:58:14;2.10;;;2.00;;
7583;SDS011;3833;41.764;26.204;2022-09-09T09:00:47;4.43;;;2.50;;
7583;SDS011;3833;41.764;26.204;2022-09-09T09:03:27;3.93;;;2.70;;
7583;SDS011;3833;41.764;26.204;2022-09-09T09:06:04;8.57;;;2.93;;
7583;SDS011;3833;41.764;26.204;2022-09-09T09:08:43;6.00;;;2.67;;
7583;SDS011;3833;41.764;26.204;2022-09-09T09:11:14;8.10;;;3.10;;
7583;SDS011;3833;41.764;26.204;2022-09-09T09:13:42;5.63;;;2.70;;
7583;SDS011;3833;41.764;26.204;2022-09-09T09:16:17;5.37;;;2.87;;
7583;SDS011;3833;41.764;26.204;2022-09-09T09:18:50;5.23;;;2.53;;
7583;SDS011;3833;41.764;26.204;2022-09-09T09:21:32;4.70;;;2.57;;
7583;SDS011;3833;41.764;26.204;2022-09-09T09:24:40;4.93;;;2.53;;
7583;SDS011;3833;41.764;26.204;2022-09-09T09:30:51;4.90;;;2.40;;
7583;SDS011;3833;41.764;26.204;2022-09-09T09:36:39;5.50;;;2.40;;
7583;SDS011;3833;41.764;26.204;2022-09-09T09:39:09;2.53;;;2.30;;
7583;SDS011;3833;41.764;26.204;2022-09-09T09:41:37;3.23;;;2.30;;
7583;SDS011;3833;41.764;26.204;2022-09-09T09:44:20;3.87;;;2.67;;
7583;SDS011;3833;41.764;26.204;2022-09-09T09:47:06;3.90;;;2.20;;
7583;SDS011;3833;41.764;26.204;2022-09-09T09:50:02;2.90;;;1.90;;
7583;SDS011;3833;41.764;26.204;2022-09-09T09:56:49;3.90;;;2.30;;
7583;SDS011;3833;41.764;26.204;2022-09-09T09:59:31;3.03;;;2.23;;
7583;SDS011;3833;41.764;26.204;2022-09-09T10:05:01;5.37;;;2.57;;
7583;SDS011;3833;41.764;26.204;2022-09-09T10:07:30;3.93;;;2.80;;
7583;SDS011;3833;41.764;26.204;2022-09-09T10:09:58;3.30;;;2.20;;
7583;SDS011;3833;41.764;26.204;2022-09-09T10:12:30;2.30;;;2.03;;
7583;SDS011;3833;41.764;26.204;2022-09-09T10:15:11;2.67;;;2.47;;
7583;SDS011;3833;41.764;26.204;2022-09-09T10:17:54;3.63;;;2.20;;
7583;SDS011;3833;41.764;26.204;2022-09-09T10:20:34;3.50;;;2.30;;
7583;SDS011;3833;41.764;26.204;2022-09-09T10:26:07;2.27;;;2.03;;
7583;SDS011;3833;41.764;26.204;2022-09-09T10:28:55;3.17;;;2.63;;
7583;SDS011;3833;41.764;26.204;2022-09-09T10:31:37;4.17;;;2.23;;
7583;SDS011;3833;41.764;26.204;2022-09-09T10:34:17;6.00;;;2.23;;
7583;SDS011;3833;41.764;26.204;2022-09-09T10:37:11;3.77;;;2.63;;
7583;SDS011;3833;41.764;26.204;2022-09-09T10:39:47;2.40;;;2.07;;
7583;SDS011;3833;41.764;26.204;2022-09-09T10:42:23;6.40;;;2.47;;
7583;SDS011;3833;41.764;26.204;2022-09-09T10:45:00;2.47;;;2.27;;
7583;SDS011;3833;41.764;26.204;2022-09-09T10:47:49;2.73;;;2.43;;
7583;SDS011;3833;41.764;26.204;2022-09-09T10:50:35;5.10;;;2.03;;
7583;SDS011;3833;41.764;26.204;2022-09-09T10:53:14;3.17;;;2.30;;
7583;SDS011;3833;41.764;26.204;2022-09-09T10:55:48;6.20;;;3.40;;
7583;SDS011;3833;41.764;26.204;2022-09-09T10:58:20;4.57;;;2.60;;
7583;SDS011;3833;41.764;26.204;2022-09-09T11:00:53;4.30;;;2.47;;
7583;SDS011;3833;41.764;26.204;2022-09-09T11:03:26;4.20;;;2.67;;
7583;SDS011;3833;41.764;26.204;2022-09-09T11:05:56;4.53;;;2.20;;
7583;SDS011;3833;41.764;26.204;2022-09-09T11:08:28;4.47;;;2.30;;
7583;SDS011;3833;41.764;26.204;2022-09-09T11:10:58;4.37;;;2.43;;
7583;SDS011;3833;41.764;26.204;2022-09-09T11:13:30;4.23;;;2.00;;
7583;SDS011;3833;41.764;26.204;2022-09-09T11:16:04;3.77;;;2.57;;
7583;SDS011;3833;41.764;26.204;2022-09-09T11:18:41;3.90;;;2.60;;
7583;SDS011;3833;41.764;26.204;2022-09-09T11:21:12;7.00;;;2.67;;
7583;SDS011;3833;41.764;26.204;2022-09-09T11:23:47;4.53;;;2.23;;
7583;SDS011;3833;41.764;26.204;2022-09-09T11:26:21;4.63;;;2.30;;
7583;SDS011;3833;41.764;26.204;2022-09-09T11:28:58;4.20;;;2.90;;
7583;SDS011;3833;41.764;26.204;2022-09-09T11:31:40;4.77;;;2.43;;
7583;SDS011;3833;41.764;26.204;2022-09-09T11:34:15;3.97;;;2.50;;
7583;SDS011;3833;41.764;26.204;2022-09-09T11:36:54;3.33;;;2.20;;
7583;SDS011;3833;41.764;26.204;2022-09-09T11:42:27;2.43;;;2.20;;
7583;SDS011;3833;41.764;26.204;2022-09-09T11:44:54;2.60;;;2.37;;
7583;SDS011;3833;41.764;26.204;2022-09-09T11:47:23;2.43;;;2.23;;
7583;SDS011;3833;41.764;26.204;2022-09-09T11:49:54;4.53;;;2.43;;
7583;SDS011;3833;41.764;26.204;2022-09-09T11:52:22;2.63;;;2.40;;
7583;SDS011;3833;41.764;26.204;2022-09-09T11:54:53;3.73;;;2.10;;
7583;SDS011;3833;41.764;26.204;2022-09-09T11:57:25;4.13;;;2.47;;
7583;SDS011;3833;41.764;26.204;2022-09-09T11:59:57;4.70;;;2.27;;
7583;SDS011;3833;41.764;26.204;2022-09-09T12:02:25;2.33;;;2.13;;
7583;SDS011;3833;41.764;26.204;2022-09-09T12:04:57;2.60;;;1.90;;
7583;SDS011;3833;41.764;26.204;2022-09-09T12:07:37;2.20;;;2.00;;
7583;SDS011;3833;41.764;26.204;2022-09-09T12:10:20;3.30;;;2.40;;
7583;SDS011;3833;41.764;26.204;2022-09-09T12:12:51;2.50;;;2.30;;
7583;SDS011;3833;41.764;26.204;2022-09-09T12:15:20;2.50;;;2.03;;
7583;SDS011;3833;41.764;26.204;2022-09-09T12:17:51;4.27;;;2.23;;
7583;SDS011;3833;41.764;26.204;2022-09-09T12:20:19;2.27;;;2.00;;
7583;SDS011;3833;41.764;26.204;2022-09-09T12:22:54;4.07;;;2.10;;
7583;SDS011;3833;41.764;26.204;2022-09-09T12:25:38;3.30;;;2.30;;
7583;SDS011;3833;41.764;26.204;2022-09-09T12:28:17;3.00;;;2.20;;
7583;SDS011;3833;41.764;26.204;2022-09-09T12:30:48;2.23;;;2.00;;
7583;SDS011;3833;41.764;26.204;2022-09-09T12:33:23;3.17;;;2.13;;
7583;SDS011;3833;41.764;26.204;2022-09-09T12:35:51;2.97;;;2.37;;
7583;SDS011;3833;41.764;26.204;2022-09-09T12:38:22;4.17;;;2.53;;
7583;SDS011;3833;41.764;26.204;2022-09-09T12:41:00;5.57;;;2.40;;
7583;SDS011;3833;41.764;26.204;2022-09-09T12:43:30;2.23;;;2.00;;
7583;SDS011;3833;41.764;26.204;2022-09-09T12:45:57;2.57;;;2.00;;
7583;SDS011;3833;41.764;26.204;2022-09-09T12:48:29;3.90;;;2.03;;
7583;SDS011;3833;41.764;26.204;2022-09-09T12:50:59;2.87;;;1.93;;
7583;SDS011;3833;41.764;26.204;2022-09-09T12:53:29;3.47;;;2.27;;
7583;SDS011;3833;41.764;26.204;2022-09-09T12:56:01;1.87;;;1.70;;
7583;SDS011;3833;41.764;26.204;2022-09-09T12:58:32;2.33;;;2.13;;
7583;SDS011;3833;41.764;26.204;2022-09-09T13:01:00;2.57;;;1.97;;
7583;SDS011;3833;41.764;26.204;2022-09-09T13:03:30;3.33;;;2.00;;
7583;SDS011;3833;41.764;26.204;2022-09-09T13:05:58;3.27;;;2.07;;
7583;SDS011;3833;41.764;26.204;2022-09-09T13:08:36;2.80;;;2.00;;
7583;SDS011;3833;41.764;26.204;2022-09-09T13:11:06;2.40;;;2.00;;
7583;SDS011;3833;41.764;26.204;2022-09-09T13:13:39;2.10;;;1.90;;
7583;SDS011;3833;41.764;26.204;2022-09-09T13:16:17;2.70;;;2.03;;
7583;SDS011;3833;41.764;26.204;2022-09-09T13:18:46;4.60;;;2.00;;
7583;SDS011;3833;41.764;26.204;2022-09-09T13:21:13;3.23;;;2.13;;
7583;SDS011;3833;41.764;26.204;2022-09-09T13:23:40;3.73;;;2.10;;
7583;SDS011;3833;41.764;26.204;2022-09-09T13:26:20;3.83;;;2.43;;
7583;SDS011;3833;41.764;26.204;2022-09-09T13:28:49;7.13;;;2.70;;
7583;SDS011;3833;41.764;26.204;2022-09-09T13:31:21;3.57;;;2.40;;
7583;SDS011;3833;41.764;26.204;2022-09-09T13:33:49;3.10;;;2.00;;
7583;SDS011;3833;41.764;26.204;2022-09-09T13:36:26;3.97;;;2.60;;
7583;SDS011;3833;41.764;26.204;2022-09-09T13:38:56;5.13;;;2.27;;
7583;SDS011;3833;41.764;26.204;2022-09-09T13:41:28;4.83;;;2.13;;
7583;SDS011;3833;41.764;26.204;2022-09-09T13:43:57;3.87;;;1.90;;
7583;SDS011;3833;41.764;26.204;2022-09-09T13:46:26;3.30;;;1.97;;
7583;SDS011;3833;41.764;26.204;2022-09-09T13:48:58;3.73;;;2.20;;
7583;SDS011;3833;41.764;26.204;2022-09-09T13:51:33;2.90;;;2.33;;
7583;SDS011;3833;41.764;26.204;2022-09-09T13:54:02;4.00;;;2.00;;
7583;SDS011;3833;41.764;26.204;2022-09-09T13:56:31;3.10;;;2.00;;
7583;SDS011;3833;41.764;26.204;2022-09-09T13:58:58;3.80;;;2.40;;
7583;SDS011;3833;41.764;26.204;2022-09-09T14:01:25;3.20;;;2.20;;
7583;SDS011;3833;41.764;26.204;2022-09-09T14:03:52;3.93;;;2.10;;
7583;SDS011;3833;41.764;26.204;2022-09-09T14:06:22;2.80;;;2.40;;
7583;SDS011;3833;41.764;26.204;2022-09-09T14:08:49;2.60;;;2.03;;
7583;SDS011;3833;41.764;26.204;2022-09-09T14:11:17;3.83;;;2.20;;
7583;SDS011;3833;41.764;26.204;2022-09-09T14:13:47;2.63;;;1.83;;
7583;SDS011;3833;41.764;26.204;2022-09-09T14:16:15;2.10;;;1.90;;
7583;SDS011;3833;41.764;26.204;2022-09-09T14:18:43;2.37;;;2.00;;
7583;SDS011;3833;41.764;26.204;2022-09-09T14:21:10;2.27;;;1.93;;
7583;SDS011;3833;41.764;26.204;2022-09-09T14:23:37;1.90;;;1.80;;
7583;SDS011;3833;41.764;26.204;2022-09-09T14:26:04;1.93;;;1.73;;
7583;SDS011;3833;41.764;26.204;2022-09-09T14:28:34;4.27;;;1.50;;
7583;SDS011;3833;41.764;26.204;2022-09-09T14:31:03;1.90;;;1.70;;
7583;SDS011;3833;41.764;26.204;2022-09-09T14:33:30;2.40;;;1.83;;
7583;SDS011;3833;41.764;26.204;2022-09-09T14:35:58;3.53;;;1.80;;
7583;SDS011;3833;41.764;26.204;2022-09-09T14:38:26;3.10;;;1.60;;
7583;SDS011;3833;41.764;26.204;2022-09-09T14:40:55;2.77;;;1.87;;
7583;SDS011;3833;41.764;26.204;2022-09-09T14:43:27;2.60;;;2.03;;
7583;SDS011;3833;41.764;26.204;2022-09-09T14:45:55;2.30;;;1.87;;
7583;SDS011;3833;41.764;26.204;2022-09-09T14:48:23;1.93;;;1.83;;
7583;SDS011;3833;41.764;26.204;2022-09-09T14:50:50;3.17;;;2.00;;
7583;SDS011;3833;41.764;26.204;2022-09-09T14:53:17;3.47;;;2.00;;
7583;SDS011;3833;41.764;26.204;2022-09-09T14:55:44;2.57;;;1.57;;
7583;SDS011;3833;41.764;26.204;2022-09-09T14:58:11;4.97;;;1.60;;
7583;SDS011;3833;41.764;26.204;2022-09-09T15:00:38;2.47;;;1.70;;
7583;SDS011;3833;41.764;26.204;2022-09-09T15:03:06;3.70;;;1.93;;
7583;SDS011;3833;41.764;26.204;2022-09-09T15:05:34;2.10;;;1.70;;
7583;SDS011;3833;41.764;26.204;2022-09-09T15:08:02;2.17;;;1.73;;
7583;SDS011;3833;41.764;26.204;2022-09-09T15:10:29;2.33;;;1.90;;
7583;SDS011;3833;41.764;26.204;2022-09-09T15:12:56;2.30;;;1.90;;
7583;SDS011;3833;41.764;26.204;2022-09-09T15:15:23;2.87;;;1.90;;
7583;SDS011;3833;41.764;26.204;2022-09-09T15:17:50;2.10;;;1.90;;
7583;SDS011;3833;41.764;26.204;2022-09-09T15:20:17;5.03;;;1.80;;
7583;SDS011;3833;41.764;26.204;2022-09-09T15:22:50;2.83;;;1.87;;
7583;SDS011;3833;41.764;26.204;2022-09-09T15:25:18;2.20;;;1.90;;
7583;SDS011;3833;41.764;26.204;2022-09-09T15:27:44;2.00;;;1.80;;
7583;SDS011;3833;41.764;26.204;2022-09-09T15:30:11;3.87;;;2.00;;
7583;SDS011;3833;41.764;26.204;2022-09-09T15:32:38;3.77;;;2.07;;
7583;SDS011;3833;41.764;26.204;2022-09-09T15:35:06;3.50;;;1.90;;
7583;SDS011;3833;41.764;26.204;2022-09-09T15:37:33;4.87;;;2.13;;
7583;SDS011;3833;41.764;26.204;2022-09-09T15:40:01;2.00;;;1.70;;
7583;SDS011;3833;41.764;26.204;2022-09-09T15:42:29;4.43;;;1.60;;
7583;SDS011;3833;41.764;26.204;2022-09-09T15:44:56;3.40;;;2.17;;